sensor_id;sensor_type;location;lat;lon;timestamp;temperature;humidity
488;DHT22;16586;48.976;9.584;2022-09-02T00:01:11;17.10;47.50
488;DHT22;16586;48.976;9.584;2022-09-02T00:03:38;17.20;48.40
488;DHT22;16586;48.976;9.584;2022-09-02T00:06:05;17.10;47.50
488;DHT22;16586;48.976;9.584;2022-09-02T00:11:01;17.10;47.20
488;DHT22;16586;48.976;9.584;2022-09-02T00:13:31;17.00;46.90
488;DHT22;16586;48.976;9.584;2022-09-02T00:15:58;17.00;47.40
488;DHT22;16586;48.976;9.584;2022-09-02T00:18:25;17.00;47.50
488;DHT22;16586;48.976;9.584;2022-09-02T00:20:52;16.80;47.30
488;DHT22;16586;48.976;9.584;2022-09-02T00:23:19;17.00;47.50
488;DHT22;16586;48.976;9.584;2022-09-02T00:25:48;17.00;47.60
488;DHT22;16586;48.976;9.584;2022-09-02T00:28:15;17.00;48.90
488;DHT22;16586;48.976;9.584;2022-09-02T00:30:43;17.00;48.30
488;DHT22;16586;48.976;9.584;2022-09-02T00:33:11;17.00;47.60
488;DHT22;16586;48.976;9.584;2022-09-02T00:35:38;17.00;47.50
488;DHT22;16586;48.976;9.584;2022-09-02T00:38:05;16.90;47.00
488;DHT22;16586;48.976;9.584;2022-09-02T00:40:33;16.90;47.00
488;DHT22;16586;48.976;9.584;2022-09-02T00:43:05;16.90;47.00
488;DHT22;16586;48.976;9.584;2022-09-02T00:45:32;16.80;47.40
488;DHT22;16586;48.976;9.584;2022-09-02T00:47:59;16.80;47.30
488;DHT22;16586;48.976;9.584;2022-09-02T00:50:30;16.80;48.50
488;DHT22;16586;48.976;9.584;2022-09-02T00:53:01;16.80;48.10
488;DHT22;16586;48.976;9.584;2022-09-02T00:55:30;16.70;47.20
488;DHT22;16586;48.976;9.584;2022-09-02T00:58:03;16.60;47.10
488;DHT22;16586;48.976;9.584;2022-09-02T01:00:34;16.60;47.20
488;DHT22;16586;48.976;9.584;2022-09-02T01:03:05;16.60;47.80
488;DHT22;16586;48.976;9.584;2022-09-02T01:05:36;16.60;47.10
488;DHT22;16586;48.976;9.584;2022-09-02T01:08:03;16.50;47.00
488;DHT22;16586;48.976;9.584;2022-09-02T01:10:33;16.50;47.20
488;DHT22;16586;48.976;9.584;2022-09-02T01:13:06;16.40;46.90
488;DHT22;16586;48.976;9.584;2022-09-02T01:15:35;16.30;46.80
488;DHT22;16586;48.976;9.584;2022-09-02T01:18:03;16.30;48.10
488;DHT22;16586;48.976;9.584;2022-09-02T01:20:31;16.30;47.50
488;DHT22;16586;48.976;9.584;2022-09-02T01:25:31;16.30;47.40
488;DHT22;16586;48.976;9.584;2022-09-02T01:27:59;16.20;47.60
488;DHT22;16586;48.976;9.584;2022-09-02T01:30:27;16.20;47.70
488;DHT22;16586;48.976;9.584;2022-09-02T01:32:54;16.20;49.40
488;DHT22;16586;48.976;9.584;2022-09-02T01:35:21;16.20;48.20
488;DHT22;16586;48.976;9.584;2022-09-02T01:40:17;14.50;46.30
488;DHT22;16586;48.976;9.584;2022-09-02T01:42:46;16.10;48.00
488;DHT22;16586;48.976;9.584;2022-09-02T01:45:13;16.10;48.80
488;DHT22;16586;48.976;9.584;2022-09-02T01:47:41;16.10;48.00
488;DHT22;16586;48.976;9.584;2022-09-02T01:50:08;16.10;48.00
488;DHT22;16586;48.976;9.584;2022-09-02T01:52:35;16.00;48.10
488;DHT22;16586;48.976;9.584;2022-09-02T01:55:03;16.00;47.70
488;DHT22;16586;48.976;9.584;2022-09-02T01:59:58;15.90;48.00
488;DHT22;16586;48.976;9.584;2022-09-02T02:02:26;15.90;48.10
488;DHT22;16586;48.976;9.584;2022-09-02T02:04:54;15.90;48.30
488;DHT22;16586;48.976;9.584;2022-09-02T02:07:21;15.80;48.20
488;DHT22;16586;48.976;9.584;2022-09-02T02:14:45;15.80;48.20
488;DHT22;16586;48.976;9.584;2022-09-02T02:17:12;15.80;48.30
488;DHT22;16586;48.976;9.584;2022-09-02T02:19:40;15.80;48.30
488;DHT22;16586;48.976;9.584;2022-09-02T02:22:08;15.80;48.30
488;DHT22;16586;48.976;9.584;2022-09-02T02:24:35;15.80;48.50
488;DHT22;16586;48.976;9.584;2022-09-02T02:27:03;15.80;49.50
488;DHT22;16586;48.976;9.584;2022-09-02T02:29:30;15.80;49.10
488;DHT22;16586;48.976;9.584;2022-09-02T02:31:58;15.70;48.70
488;DHT22;16586;48.976;9.584;2022-09-02T02:34:25;15.70;48.70
488;DHT22;16586;48.976;9.584;2022-09-02T02:36:52;15.70;48.70
488;DHT22;16586;48.976;9.584;2022-09-02T02:39:19;15.70;48.70
488;DHT22;16586;48.976;9.584;2022-09-02T02:41:46;15.70;48.70
488;DHT22;16586;48.976;9.584;2022-09-02T02:44:13;15.70;48.70
488;DHT22;16586;48.976;9.584;2022-09-02T02:46:40;15.70;48.60
488;DHT22;16586;48.976;9.584;2022-09-02T02:49:09;15.60;48.60
488;DHT22;16586;48.976;9.584;2022-09-02T02:51:36;15.60;48.60
488;DHT22;16586;48.976;9.584;2022-09-02T02:54:03;15.60;48.60
488;DHT22;16586;48.976;9.584;2022-09-02T02:56:30;15.60;48.70
488;DHT22;16586;48.976;9.584;2022-09-02T02:58:58;15.60;48.60
488;DHT22;16586;48.976;9.584;2022-09-02T03:01:28;15.50;48.60
488;DHT22;16586;48.976;9.584;2022-09-02T03:03:55;15.50;48.70
488;DHT22;16586;48.976;9.584;2022-09-02T03:11:19;15.50;48.50
488;DHT22;16586;48.976;9.584;2022-09-02T03:13:47;15.50;48.80
488;DHT22;16586;48.976;9.584;2022-09-02T03:16:14;15.40;48.30
488;DHT22;16586;48.976;9.584;2022-09-02T03:18:44;15.40;48.60
488;DHT22;16586;48.976;9.584;2022-09-02T03:21:11;15.40;48.40
488;DHT22;16586;48.976;9.584;2022-09-02T03:23:39;15.70;48.90
488;DHT22;16586;48.976;9.584;2022-09-02T03:26:10;15.20;49.40
488;DHT22;16586;48.976;9.584;2022-09-02T03:28:37;15.20;48.50
488;DHT22;16586;48.976;9.584;2022-09-02T03:31:05;15.20;49.10
488;DHT22;16586;48.976;9.584;2022-09-02T03:33:32;15.10;48.60
488;DHT22;16586;48.976;9.584;2022-09-02T03:35:59;15.10;48.80
488;DHT22;16586;48.976;9.584;2022-09-02T03:38:26;15.00;48.90
488;DHT22;16586;48.976;9.584;2022-09-02T03:43:22;15.10;48.90
488;DHT22;16586;48.976;9.584;2022-09-02T03:45:48;15.10;49.10
488;DHT22;16586;48.976;9.584;2022-09-02T03:48:15;15.40;49.50
488;DHT22;16586;48.976;9.584;2022-09-02T03:50:44;15.10;49.40
488;DHT22;16586;48.976;9.584;2022-09-02T03:53:12;15.10;49.40
488;DHT22;16586;48.976;9.584;2022-09-02T03:55:39;15.00;49.70
488;DHT22;16586;48.976;9.584;2022-09-02T03:58:07;15.10;49.70
488;DHT22;16586;48.976;9.584;2022-09-02T04:00:34;15.00;49.70
488;DHT22;16586;48.976;9.584;2022-09-02T04:03:03;15.00;49.80
488;DHT22;16586;48.976;9.584;2022-09-02T04:05:31;15.00;49.80
488;DHT22;16586;48.976;9.584;2022-09-02T04:07:58;15.00;49.80
488;DHT22;16586;48.976;9.584;2022-09-02T04:15:21;15.00;49.40
488;DHT22;16586;48.976;9.584;2022-09-02T04:17:47;15.00;49.50
488;DHT22;16586;48.976;9.584;2022-09-02T04:20:14;15.00;49.60
488;DHT22;16586;48.976;9.584;2022-09-02T04:22:42;15.00;49.50
488;DHT22;16586;48.976;9.584;2022-09-02T04:25:09;15.00;49.50
488;DHT22;16586;48.976;9.584;2022-09-02T04:27:37;15.20;50.00
488;DHT22;16586;48.976;9.584;2022-09-02T04:32:33;15.00;49.30
488;DHT22;16586;48.976;9.584;2022-09-02T04:35:00;14.80;49.20
488;DHT22;16586;48.976;9.584;2022-09-02T04:37:27;15.00;50.30
488;DHT22;16586;48.976;9.584;2022-09-02T04:39:54;14.90;48.80
488;DHT22;16586;48.976;9.584;2022-09-02T04:42:22;14.90;48.80
488;DHT22;16586;48.976;9.584;2022-09-02T04:44:50;15.50;49.30
488;DHT22;16586;48.976;9.584;2022-09-02T04:47:19;14.90;48.80
488;DHT22;16586;48.976;9.584;2022-09-02T04:49:49;14.90;49.50
488;DHT22;16586;48.976;9.584;2022-09-02T04:57:10;14.70;49.10
488;DHT22;16586;48.976;9.584;2022-09-02T05:04:33;14.70;50.00
488;DHT22;16586;48.976;9.584;2022-09-02T05:11:56;14.70;49.80
488;DHT22;16586;48.976;9.584;2022-09-02T05:14:25;14.70;49.90
488;DHT22;16586;48.976;9.584;2022-09-02T05:19:21;14.70;49.90
488;DHT22;16586;48.976;9.584;2022-09-02T05:21:49;14.70;50.00
488;DHT22;16586;48.976;9.584;2022-09-02T05:24:19;14.70;49.90
488;DHT22;16586;48.976;9.584;2022-09-02T05:26:46;15.50;50.70
488;DHT22;16586;48.976;9.584;2022-09-02T05:29:14;14.70;50.00
488;DHT22;16586;48.976;9.584;2022-09-02T05:31:43;14.90;50.20
488;DHT22;16586;48.976;9.584;2022-09-02T05:34:10;14.70;50.40
488;DHT22;16586;48.976;9.584;2022-09-02T05:36:37;14.70;50.20
488;DHT22;16586;48.976;9.584;2022-09-02T05:39:04;14.70;50.10
488;DHT22;16586;48.976;9.584;2022-09-02T05:44:01;14.70;49.90
488;DHT22;16586;48.976;9.584;2022-09-02T05:48:57;14.70;50.30
488;DHT22;16586;48.976;9.584;2022-09-02T05:51:37;14.00;49.70
488;DHT22;16586;48.976;9.584;2022-09-02T05:54:05;14.70;50.00
488;DHT22;16586;48.976;9.584;2022-09-02T05:56:34;14.70;50.20
488;DHT22;16586;48.976;9.584;2022-09-02T05:59:02;14.70;50.10
488;DHT22;16586;48.976;9.584;2022-09-02T06:03:59;14.70;50.30
488;DHT22;16586;48.976;9.584;2022-09-02T06:06:27;14.60;50.30
488;DHT22;16586;48.976;9.584;2022-09-02T06:08:54;14.60;50.50
488;DHT22;16586;48.976;9.584;2022-09-02T06:11:21;14.50;50.60
488;DHT22;16586;48.976;9.584;2022-09-02T06:16:21;14.60;51.30
488;DHT22;16586;48.976;9.584;2022-09-02T06:18:49;14.60;51.10
488;DHT22;16586;48.976;9.584;2022-09-02T06:21:16;14.60;51.70
488;DHT22;16586;48.976;9.584;2022-09-02T06:26:14;14.60;51.40
488;DHT22;16586;48.976;9.584;2022-09-02T06:28:41;14.60;51.60
488;DHT22;16586;48.976;9.584;2022-09-02T06:31:11;14.70;51.80
488;DHT22;16586;48.976;9.584;2022-09-02T06:33:39;14.70;52.00
488;DHT22;16586;48.976;9.584;2022-09-02T06:36:07;14.70;52.20
488;DHT22;16586;48.976;9.584;2022-09-02T06:38:36;14.80;52.30
488;DHT22;16586;48.976;9.584;2022-09-02T06:41:03;14.80;52.60
488;DHT22;16586;48.976;9.584;2022-09-02T06:43:31;14.90;52.90
488;DHT22;16586;48.976;9.584;2022-09-02T06:45:58;14.90;53.10
488;DHT22;16586;48.976;9.584;2022-09-02T06:48:26;15.00;53.30
488;DHT22;16586;48.976;9.584;2022-09-02T06:50:53;15.00;53.30
488;DHT22;16586;48.976;9.584;2022-09-02T06:53:20;14.90;53.70
488;DHT22;16586;48.976;9.584;2022-09-02T06:55:47;15.20;53.80
488;DHT22;16586;48.976;9.584;2022-09-02T06:58:14;15.30;54.00
488;DHT22;16586;48.976;9.584;2022-09-02T07:00:42;15.00;53.60
488;DHT22;16586;48.976;9.584;2022-09-02T07:03:09;15.50;53.70
488;DHT22;16586;48.976;9.584;2022-09-02T07:08:27;15.60;53.40
488;DHT22;16586;48.976;9.584;2022-09-02T07:10:54;15.70;53.30
488;DHT22;16586;48.976;9.584;2022-09-02T07:13:21;15.80;52.50
488;DHT22;16586;48.976;9.584;2022-09-02T07:15:48;15.80;52.30
488;DHT22;16586;48.976;9.584;2022-09-02T07:18:15;15.90;53.60
488;DHT22;16586;48.976;9.584;2022-09-02T07:20:44;16.00;51.80
488;DHT22;16586;48.976;9.584;2022-09-02T07:23:13;16.20;51.50
488;DHT22;16586;48.976;9.584;2022-09-02T07:25:40;16.20;51.30
488;DHT22;16586;48.976;9.584;2022-09-02T07:28:08;16.30;51.10
488;DHT22;16586;48.976;9.584;2022-09-02T07:30:35;16.50;50.30
488;DHT22;16586;48.976;9.584;2022-09-02T07:37:59;16.80;49.60
488;DHT22;16586;48.976;9.584;2022-09-02T07:40:27;16.70;49.00
488;DHT22;16586;48.976;9.584;2022-09-02T07:42:55;17.00;48.80
488;DHT22;16586;48.976;9.584;2022-09-02T07:45:24;16.80;47.90
488;DHT22;16586;48.976;9.584;2022-09-02T07:47:51;17.20;49.10
488;DHT22;16586;48.976;9.584;2022-09-02T07:50:21;17.30;47.80
488;DHT22;16586;48.976;9.584;2022-09-02T07:52:52;17.40;49.10
488;DHT22;16586;48.976;9.584;2022-09-02T07:55:19;17.50;47.10
488;DHT22;16586;48.976;9.584;2022-09-02T07:57:47;17.60;46.60
488;DHT22;16586;48.976;9.584;2022-09-02T08:00:15;17.70;46.50
488;DHT22;16586;48.976;9.584;2022-09-02T08:02:45;17.80;47.00
488;DHT22;16586;48.976;9.584;2022-09-02T08:05:13;17.90;45.70
488;DHT22;16586;48.976;9.584;2022-09-02T08:07:40;17.90;45.70
488;DHT22;16586;48.976;9.584;2022-09-02T08:10:09;17.00;44.50
488;DHT22;16586;48.976;9.584;2022-09-02T08:12:38;18.10;44.80
488;DHT22;16586;48.976;9.584;2022-09-02T08:15:08;18.20;44.60
488;DHT22;16586;48.976;9.584;2022-09-02T08:22:33;19.60;44.50
488;DHT22;16586;48.976;9.584;2022-09-02T08:25:00;18.50;43.30
488;DHT22;16586;48.976;9.584;2022-09-02T08:27:27;18.60;43.10
488;DHT22;16586;48.976;9.584;2022-09-02T08:29:54;18.70;43.10
488;DHT22;16586;48.976;9.584;2022-09-02T08:32:23;18.80;43.30
488;DHT22;16586;48.976;9.584;2022-09-02T08:34:50;18.90;43.30
488;DHT22;16586;48.976;9.584;2022-09-02T08:37:17;19.00;42.00
488;DHT22;16586;48.976;9.584;2022-09-02T08:39:46;19.10;41.60
488;DHT22;16586;48.976;9.584;2022-09-02T08:42:20;19.20;40.40
488;DHT22;16586;48.976;9.584;2022-09-02T08:44:49;19.20;40.40
488;DHT22;16586;48.976;9.584;2022-09-02T08:47:23;19.40;41.40
488;DHT22;16586;48.976;9.584;2022-09-02T08:49:55;19.60;41.80
488;DHT22;16586;48.976;9.584;2022-09-02T08:52:28;19.60;40.10
488;DHT22;16586;48.976;9.584;2022-09-02T08:54:59;19.60;39.60
488;DHT22;16586;48.976;9.584;2022-09-02T09:00:00;19.70;38.90
488;DHT22;16586;48.976;9.584;2022-09-02T09:02:38;19.80;38.60
488;DHT22;16586;48.976;9.584;2022-09-02T09:05:24;20.10;36.60
488;DHT22;16586;48.976;9.584;2022-09-02T09:08:09;20.20;36.00
488;DHT22;16586;48.976;9.584;2022-09-02T09:10:48;20.10;35.90
488;DHT22;16586;48.976;9.584;2022-09-02T09:16:39;20.40;36.20
488;DHT22;16586;48.976;9.584;2022-09-02T09:19:14;20.60;34.30
488;DHT22;16586;48.976;9.584;2022-09-02T09:21:42;20.70;33.70
488;DHT22;16586;48.976;9.584;2022-09-02T09:24:20;20.70;33.70
488;DHT22;16586;48.976;9.584;2022-09-02T09:26:52;20.90;32.80
488;DHT22;16586;48.976;9.584;2022-09-02T09:29:19;20.90;32.50
488;DHT22;16586;48.976;9.584;2022-09-02T09:31:53;20.90;32.30
488;DHT22;16586;48.976;9.584;2022-09-02T09:34:23;21.00;31.70
488;DHT22;16586;48.976;9.584;2022-09-02T09:36:53;21.20;31.50
488;DHT22;16586;48.976;9.584;2022-09-02T09:39:25;21.40;31.60
488;DHT22;16586;48.976;9.584;2022-09-02T09:41:56;21.30;31.50
488;DHT22;16586;48.976;9.584;2022-09-02T09:44:41;21.50;30.30
488;DHT22;16586;48.976;9.584;2022-09-02T09:47:14;21.70;30.00
488;DHT22;16586;48.976;9.584;2022-09-02T09:49:48;21.70;30.00
488;DHT22;16586;48.976;9.584;2022-09-02T09:55:07;22.20;29.20
488;DHT22;16586;48.976;9.584;2022-09-02T09:57:36;22.30;29.30
488;DHT22;16586;48.976;9.584;2022-09-02T10:00:14;22.30;28.40
488;DHT22;16586;48.976;9.584;2022-09-02T10:02:49;22.50;28.20
488;DHT22;16586;48.976;9.584;2022-09-02T10:05:27;22.70;27.80
488;DHT22;16586;48.976;9.584;2022-09-02T10:07:56;23.10;28.80
488;DHT22;16586;48.976;9.584;2022-09-02T10:10:26;23.30;26.20
488;DHT22;16586;48.976;9.584;2022-09-02T10:12:56;23.30;26.70
488;DHT22;16586;48.976;9.584;2022-09-02T10:15:33;23.50;25.60
488;DHT22;16586;48.976;9.584;2022-09-02T10:18:11;23.50;25.80
488;DHT22;16586;48.976;9.584;2022-09-02T10:20:51;23.70;26.10
488;DHT22;16586;48.976;9.584;2022-09-02T10:23:28;24.00;25.50
488;DHT22;16586;48.976;9.584;2022-09-02T10:26:05;24.10;25.20
488;DHT22;16586;48.976;9.584;2022-09-02T10:28:59;24.30;25.50
488;DHT22;16586;48.976;9.584;2022-09-02T10:31:31;24.30;25.40
488;DHT22;16586;48.976;9.584;2022-09-02T10:34:09;24.20;24.70
488;DHT22;16586;48.976;9.584;2022-09-02T10:37:00;24.10;25.30
488;DHT22;16586;48.976;9.584;2022-09-02T10:39:51;24.10;25.40
488;DHT22;16586;48.976;9.584;2022-09-02T10:42:31;24.20;26.00
488;DHT22;16586;48.976;9.584;2022-09-02T10:45:05;24.20;26.10
488;DHT22;16586;48.976;9.584;2022-09-02T10:47:38;23.90;25.40
488;DHT22;16586;48.976;9.584;2022-09-02T10:50:12;23.90;25.30
488;DHT22;16586;48.976;9.584;2022-09-02T10:52:57;24.00;25.30
488;DHT22;16586;48.976;9.584;2022-09-02T10:55:34;23.90;25.30
488;DHT22;16586;48.976;9.584;2022-09-02T10:58:10;23.90;25.60
488;DHT22;16586;48.976;9.584;2022-09-02T11:00:39;23.90;25.10
488;DHT22;16586;48.976;9.584;2022-09-02T11:03:12;23.90;24.60
488;DHT22;16586;48.976;9.584;2022-09-02T11:05:44;23.90;24.60
488;DHT22;16586;48.976;9.584;2022-09-02T11:08:17;24.10;25.00
488;DHT22;16586;48.976;9.584;2022-09-02T11:10:55;24.00;24.30
488;DHT22;16586;48.976;9.584;2022-09-02T11:13:32;24.30;25.40
488;DHT22;16586;48.976;9.584;2022-09-02T11:16:04;24.20;24.50
488;DHT22;16586;48.976;9.584;2022-09-02T11:18:34;24.20;23.90
488;DHT22;16586;48.976;9.584;2022-09-02T11:21:21;24.30;23.30
488;DHT22;16586;48.976;9.584;2022-09-02T11:23:56;24.40;23.90
488;DHT22;16586;48.976;9.584;2022-09-02T11:26:28;24.30;23.20
488;DHT22;16586;48.976;9.584;2022-09-02T11:29:00;24.60;24.40
488;DHT22;16586;48.976;9.584;2022-09-02T11:31:33;24.40;23.40
488;DHT22;16586;48.976;9.584;2022-09-02T11:34:04;24.40;23.20
488;DHT22;16586;48.976;9.584;2022-09-02T11:36:37;24.50;22.70
488;DHT22;16586;48.976;9.584;2022-09-02T11:39:10;24.60;23.50
488;DHT22;16586;48.976;9.584;2022-09-02T11:41:49;24.60;22.60
488;DHT22;16586;48.976;9.584;2022-09-02T11:47:44;24.80;23.00
488;DHT22;16586;48.976;9.584;2022-09-02T11:50:36;24.90;22.90
488;DHT22;16586;48.976;9.584;2022-09-02T11:53:19;24.80;22.10
488;DHT22;16586;48.976;9.584;2022-09-02T11:55:52;24.80;22.20
488;DHT22;16586;48.976;9.584;2022-09-02T11:58:32;24.80;22.30
488;DHT22;16586;48.976;9.584;2022-09-02T12:01:18;24.80;22.20
488;DHT22;16586;48.976;9.584;2022-09-02T12:03:51;24.80;22.00
488;DHT22;16586;48.976;9.584;2022-09-02T12:06:19;24.70;21.90
488;DHT22;16586;48.976;9.584;2022-09-02T12:09:04;24.60;22.00
488;DHT22;16586;48.976;9.584;2022-09-02T12:17:39;24.50;21.90
488;DHT22;16586;48.976;9.584;2022-09-02T12:20:11;24.40;21.90
488;DHT22;16586;48.976;9.584;2022-09-02T12:22:57;24.30;21.70
488;DHT22;16586;48.976;9.584;2022-09-02T12:25:36;24.30;22.10
488;DHT22;16586;48.976;9.584;2022-09-02T12:28:32;24.20;22.60
488;DHT22;16586;48.976;9.584;2022-09-02T12:31:14;24.20;22.00
488;DHT22;16586;48.976;9.584;2022-09-02T12:33:44;24.30;22.80
488;DHT22;16586;48.976;9.584;2022-09-02T12:36:45;24.20;22.20
488;DHT22;16586;48.976;9.584;2022-09-02T12:42:21;24.30;22.40
488;DHT22;16586;48.976;9.584;2022-09-02T12:44:54;24.20;22.50
488;DHT22;16586;48.976;9.584;2022-09-02T12:47:34;24.50;23.30
488;DHT22;16586;48.976;9.584;2022-09-02T12:50:06;24.30;22.80
488;DHT22;16586;48.976;9.584;2022-09-02T12:52:44;24.30;22.50
488;DHT22;16586;48.976;9.584;2022-09-02T12:55:19;24.60;23.20
488;DHT22;16586;48.976;9.584;2022-09-02T12:57:48;24.30;22.80
488;DHT22;16586;48.976;9.584;2022-09-02T13:00:25;24.30;22.00
488;DHT22;16586;48.976;9.584;2022-09-02T13:03:04;24.30;22.10
488;DHT22;16586;48.976;9.584;2022-09-02T13:05:45;24.40;22.80
488;DHT22;16586;48.976;9.584;2022-09-02T13:08:45;24.30;22.30
488;DHT22;16586;48.976;9.584;2022-09-02T13:11:34;24.40;23.50
488;DHT22;16586;48.976;9.584;2022-09-02T13:17:26;24.50;22.30
488;DHT22;16586;48.976;9.584;2022-09-02T13:20:18;24.40;22.00
488;DHT22;16586;48.976;9.584;2022-09-02T13:23:12;24.40;22.10
488;DHT22;16586;48.976;9.584;2022-09-02T13:26:00;24.40;22.80
488;DHT22;16586;48.976;9.584;2022-09-02T13:31:28;24.50;21.90
488;DHT22;16586;48.976;9.584;2022-09-02T13:34:01;24.50;22.00
488;DHT22;16586;48.976;9.584;2022-09-02T13:36:33;24.60;21.80
488;DHT22;16586;48.976;9.584;2022-09-02T13:39:12;24.60;21.70
488;DHT22;16586;48.976;9.584;2022-09-02T13:41:39;24.80;22.20
488;DHT22;16586;48.976;9.584;2022-09-02T13:44:08;24.80;22.80
488;DHT22;16586;48.976;9.584;2022-09-02T13:46:45;24.80;21.30
488;DHT22;16586;48.976;9.584;2022-09-02T13:49:20;25.00;22.00
488;DHT22;16586;48.976;9.584;2022-09-02T13:51:48;25.10;22.30
488;DHT22;16586;48.976;9.584;2022-09-02T13:54:27;25.10;21.40
488;DHT22;16586;48.976;9.584;2022-09-02T13:56:56;25.30;21.10
488;DHT22;16586;48.976;9.584;2022-09-02T13:59:34;25.50;21.90
488;DHT22;16586;48.976;9.584;2022-09-02T14:02:20;25.70;20.20
488;DHT22;16586;48.976;9.584;2022-09-02T14:04:50;26.00;20.30
488;DHT22;16586;48.976;9.584;2022-09-02T14:07:21;26.50;21.10
488;DHT22;16586;48.976;9.584;2022-09-02T14:09:50;27.00;20.70
488;DHT22;16586;48.976;9.584;2022-09-02T14:12:17;27.50;20.80
488;DHT22;16586;48.976;9.584;2022-09-02T14:14:45;28.10;18.90
488;DHT22;16586;48.976;9.584;2022-09-02T14:17:21;28.60;18.40
488;DHT22;16586;48.976;9.584;2022-09-02T14:19:50;29.20;18.40
488;DHT22;16586;48.976;9.584;2022-09-02T14:22:23;29.80;17.20
488;DHT22;16586;48.976;9.584;2022-09-02T14:24:52;30.40;16.80
488;DHT22;16586;48.976;9.584;2022-09-02T14:27:20;31.10;17.10
488;DHT22;16586;48.976;9.584;2022-09-02T14:29:52;31.60;15.20
488;DHT22;16586;48.976;9.584;2022-09-02T14:32:21;32.40;15.30
488;DHT22;16586;48.976;9.584;2022-09-02T14:35:09;33.00;13.90
488;DHT22;16586;48.976;9.584;2022-09-02T14:37:48;33.80;13.60
488;DHT22;16586;48.976;9.584;2022-09-02T14:40:15;34.30;12.60
488;DHT22;16586;48.976;9.584;2022-09-02T14:42:48;35.40;13.20
488;DHT22;16586;48.976;9.584;2022-09-02T14:45:25;35.60;11.60
488;DHT22;16586;48.976;9.584;2022-09-02T14:47:53;35.90;10.60
488;DHT22;16586;48.976;9.584;2022-09-02T14:50:26;36.50;9.70
488;DHT22;16586;48.976;9.584;2022-09-02T14:53:00;36.60;10.40
488;DHT22;16586;48.976;9.584;2022-09-02T14:55:44;36.40;9.60
488;DHT22;16586;48.976;9.584;2022-09-02T15:00:38;35.90;9.30
488;DHT22;16586;48.976;9.584;2022-09-02T15:03:05;35.50;10.10
488;DHT22;16586;48.976;9.584;2022-09-02T15:05:34;35.00;10.10
488;DHT22;16586;48.976;9.584;2022-09-02T15:08:01;34.60;11.60
488;DHT22;16586;48.976;9.584;2022-09-02T15:10:28;34.00;11.20
488;DHT22;16586;48.976;9.584;2022-09-02T15:12:56;33.50;11.20
488;DHT22;16586;48.976;9.584;2022-09-02T15:15:23;33.20;12.70
488;DHT22;16586;48.976;9.584;2022-09-02T15:17:52;32.70;12.10
488;DHT22;16586;48.976;9.584;2022-09-02T15:20:19;32.40;13.00
488;DHT22;16586;48.976;9.584;2022-09-02T15:22:48;32.10;12.70
488;DHT22;16586;48.976;9.584;2022-09-02T15:27:45;31.60;13.30
488;DHT22;16586;48.976;9.584;2022-09-02T15:32:39;31.30;13.80
488;DHT22;16586;48.976;9.584;2022-09-02T15:35:08;30.50;14.00
488;DHT22;16586;48.976;9.584;2022-09-02T15:37:35;31.00;14.20
488;DHT22;16586;48.976;9.584;2022-09-02T15:40:06;31.00;14.80
488;DHT22;16586;48.976;9.584;2022-09-02T15:42:35;30.90;15.30
488;DHT22;16586;48.976;9.584;2022-09-02T15:45:04;30.70;15.10
488;DHT22;16586;48.976;9.584;2022-09-02T15:47:34;30.60;15.20
488;DHT22;16586;48.976;9.584;2022-09-02T15:50:01;30.30;15.10
488;DHT22;16586;48.976;9.584;2022-09-02T15:52:28;30.10;15.20
488;DHT22;16586;48.976;9.584;2022-09-02T15:54:55;29.90;15.60
488;DHT22;16586;48.976;9.584;2022-09-02T15:57:25;29.80;15.80
488;DHT22;16586;48.976;9.584;2022-09-02T15:59:51;29.60;16.10
488;DHT22;16586;48.976;9.584;2022-09-02T16:02:18;29.40;15.60
488;DHT22;16586;48.976;9.584;2022-09-02T16:04:45;29.20;15.80
488;DHT22;16586;48.976;9.584;2022-09-02T16:07:12;29.10;16.30
488;DHT22;16586;48.976;9.584;2022-09-02T16:09:39;28.80;16.60
488;DHT22;16586;48.976;9.584;2022-09-02T16:12:06;28.60;17.10
488;DHT22;16586;48.976;9.584;2022-09-02T16:14:35;28.50;16.70
488;DHT22;16586;48.976;9.584;2022-09-02T16:17:02;28.40;16.90
488;DHT22;16586;48.976;9.584;2022-09-02T16:19:29;28.30;17.00
488;DHT22;16586;48.976;9.584;2022-09-02T16:21:56;28.20;17.10
488;DHT22;16586;48.976;9.584;2022-09-02T16:24:24;28.10;17.30
488;DHT22;16586;48.976;9.584;2022-09-02T16:26:51;28.10;17.50
488;DHT22;16586;48.976;9.584;2022-09-02T16:29:18;28.00;17.60
488;DHT22;16586;48.976;9.584;2022-09-02T16:31:48;27.80;17.70
488;DHT22;16586;48.976;9.584;2022-09-02T16:34:16;27.80;17.70
488;DHT22;16586;48.976;9.584;2022-09-02T16:36:46;27.70;18.10
488;DHT22;16586;48.976;9.584;2022-09-02T16:39:14;27.50;17.80
488;DHT22;16586;48.976;9.584;2022-09-02T16:41:45;27.40;18.20
488;DHT22;16586;48.976;9.584;2022-09-02T16:44:14;27.20;18.10
488;DHT22;16586;48.976;9.584;2022-09-02T16:46:42;27.10;18.40
488;DHT22;16586;48.976;9.584;2022-09-02T16:49:14;26.90;18.70
488;DHT22;16586;48.976;9.584;2022-09-02T16:51:43;26.80;19.20
488;DHT22;16586;48.976;9.584;2022-09-02T16:54:11;26.70;19.30
488;DHT22;16586;48.976;9.584;2022-09-02T16:56:38;26.60;19.60
488;DHT22;16586;48.976;9.584;2022-09-02T16:59:07;26.60;21.30
488;DHT22;16586;48.976;9.584;2022-09-02T17:01:34;26.50;21.00
488;DHT22;16586;48.976;9.584;2022-09-02T17:04:02;26.40;22.00
488;DHT22;16586;48.976;9.584;2022-09-02T17:06:31;26.20;22.10
488;DHT22;16586;48.976;9.584;2022-09-02T17:08:58;26.10;23.40
488;DHT22;16586;48.976;9.584;2022-09-02T17:11:27;26.00;22.90
488;DHT22;16586;48.976;9.584;2022-09-02T17:13:56;25.80;22.90
488;DHT22;16586;48.976;9.584;2022-09-02T17:16:26;25.60;23.30
488;DHT22;16586;48.976;9.584;2022-09-02T17:18:53;25.40;23.30
488;DHT22;16586;48.976;9.584;2022-09-02T17:21:23;25.30;23.50
488;DHT22;16586;48.976;9.584;2022-09-02T17:23:55;25.20;24.60
488;DHT22;16586;48.976;9.584;2022-09-02T17:26:24;25.00;24.40
488;DHT22;16586;48.976;9.584;2022-09-02T17:28:52;24.90;24.60
488;DHT22;16586;48.976;9.584;2022-09-02T17:31:24;24.80;24.60
488;DHT22;16586;48.976;9.584;2022-09-02T17:33:54;24.70;24.80
488;DHT22;16586;48.976;9.584;2022-09-02T17:36:25;24.60;24.70
488;DHT22;16586;48.976;9.584;2022-09-02T17:38:56;24.50;24.90
488;DHT22;16586;48.976;9.584;2022-09-02T17:41:24;24.40;25.10
488;DHT22;16586;48.976;9.584;2022-09-02T17:44:09;24.30;25.30
488;DHT22;16586;48.976;9.584;2022-09-02T17:46:38;24.20;25.40
488;DHT22;16586;48.976;9.584;2022-09-02T17:49:07;24.00;25.40
488;DHT22;16586;48.976;9.584;2022-09-02T17:51:34;23.90;25.20
488;DHT22;16586;48.976;9.584;2022-09-02T17:54:03;23.80;25.00
488;DHT22;16586;48.976;9.584;2022-09-02T17:56:38;23.70;25.20
488;DHT22;16586;48.976;9.584;2022-09-02T17:59:17;23.70;25.10
488;DHT22;16586;48.976;9.584;2022-09-02T18:01:53;23.60;25.50
488;DHT22;16586;48.976;9.584;2022-09-02T18:04:41;23.50;25.90
488;DHT22;16586;48.976;9.584;2022-09-02T18:07:19;23.30;25.80
488;DHT22;16586;48.976;9.584;2022-09-02T18:09:50;23.30;25.70
488;DHT22;16586;48.976;9.584;2022-09-02T18:12:17;23.20;25.60